sensor_id;sensor_type;location;lat;lon;timestamp;P1;durP1;ratioP1;P2;durP2;ratioP2
73869;SDS011;64924;42.140;24.762;2022-12-07T00:00:55;65.75;;;33.35;;
73869;SDS011;64924;42.140;24.762;2022-12-07T00:03:30;66.47;;;32.45;;
73869;SDS011;64924;42.140;24.762;2022-12-07T00:05:59;66.20;;;33.13;;
73869;SDS011;64924;42.140;24.762;2022-12-07T00:08:26;61.25;;;30.77;;
73869;SDS011;64924;42.140;24.762;2022-12-07T00:10:51;63.28;;;32.92;;
73869;SDS011;64924;42.140;24.762;2022-12-07T00:13:17;61.67;;;29.10;;
73869;SDS011;64924;42.140;24.762;2022-12-07T00:15:42;60.13;;;31.05;;
73869;SDS011;64924;42.140;24.762;2022-12-07T00:18:08;59.28;;;29.50;;
73869;SDS011;64924;42.140;24.762;2022-12-07T00:20:33;61.38;;;28.65;;
73869;SDS011;64924;42.140;24.762;2022-12-07T00:22:59;58.97;;;27.92;;
73869;SDS011;64924;42.140;24.762;2022-12-07T00:25:24;46.85;;;24.25;;
73869;SDS011;64924;42.140;24.762;2022-12-07T00:27:52;44.05;;;23.67;;
73869;SDS011;64924;42.140;24.762;2022-12-07T00:30:20;38.15;;;20.42;;
73869;SDS011;64924;42.140;24.762;2022-12-07T00:32:46;45.60;;;19.73;;
73869;SDS011;64924;42.140;24.762;2022-12-07T00:35:11;32.80;;;17.92;;
73869;SDS011;64924;42.140;24.762;2022-12-07T00:37:37;37.80;;;18.23;;
73869;SDS011;64924;42.140;24.762;2022-12-07T00:40:02;41.10;;;18.65;;
73869;SDS011;64924;42.140;24.762;2022-12-07T00:42:28;38.75;;;19.05;;
73869;SDS011;64924;42.140;24.762;2022-12-07T00:44:54;35.22;;;19.45;;
73869;SDS011;64924;42.140;24.762;2022-12-07T00:47:19;37.10;;;20.30;;
73869;SDS011;64924;42.140;24.762;2022-12-07T00:49:45;37.55;;;18.90;;
73869;SDS011;64924;42.140;24.762;2022-12-07T00:52:10;37.70;;;19.92;;
73869;SDS011;64924;42.140;24.762;2022-12-07T00:54:35;40.83;;;20.73;;
73869;SDS011;64924;42.140;24.762;2022-12-07T00:57:01;41.42;;;20.15;;
73869;SDS011;64924;42.140;24.762;2022-12-07T00:59:26;39.95;;;19.63;;
73869;SDS011;64924;42.140;24.762;2022-12-07T01:01:52;37.15;;;20.27;;
73869;SDS011;64924;42.140;24.762;2022-12-07T01:04:17;39.47;;;20.52;;
73869;SDS011;64924;42.140;24.762;2022-12-07T01:06:43;38.88;;;19.88;;
73869;SDS011;64924;42.140;24.762;2022-12-07T01:09:08;37.60;;;19.23;;
73869;SDS011;64924;42.140;24.762;2022-12-07T01:11:34;35.78;;;19.85;;
73869;SDS011;64924;42.140;24.762;2022-12-07T01:14:00;40.05;;;20.20;;
73869;SDS011;64924;42.140;24.762;2022-12-07T01:16:26;38.97;;;19.35;;
73869;SDS011;64924;42.140;24.762;2022-12-07T01:18:54;36.38;;;19.00;;
73869;SDS011;64924;42.140;24.762;2022-12-07T01:21:28;36.50;;;19.70;;
73869;SDS011;64924;42.140;24.762;2022-12-07T01:24:00;34.90;;;19.25;;
73869;SDS011;64924;42.140;24.762;2022-12-07T01:26:26;44.40;;;20.52;;
73869;SDS011;64924;42.140;24.762;2022-12-07T01:28:52;46.42;;;19.23;;
73869;SDS011;64924;42.140;24.762;2022-12-07T01:31:20;39.67;;;20.13;;
73869;SDS011;64924;42.140;24.762;2022-12-07T01:33:48;42.97;;;20.27;;
73869;SDS011;64924;42.140;24.762;2022-12-07T01:38:49;36.65;;;17.77;;
73869;SDS011;64924;42.140;24.762;2022-12-07T01:41:17;47.40;;;21.00;;
73869;SDS011;64924;42.140;24.762;2022-12-07T01:46:41;38.53;;;19.70;;
73869;SDS011;64924;42.140;24.762;2022-12-07T01:49:10;41.05;;;20.23;;
73869;SDS011;64924;42.140;24.762;2022-12-07T01:51:41;34.60;;;20.35;;
73869;SDS011;64924;42.140;24.762;2022-12-07T01:54:08;37.53;;;19.60;;
73869;SDS011;64924;42.140;24.762;2022-12-07T01:56:36;34.65;;;19.88;;
73869;SDS011;64924;42.140;24.762;2022-12-07T01:59:04;37.03;;;18.55;;
73869;SDS011;64924;42.140;24.762;2022-12-07T02:01:30;47.33;;;19.92;;
73869;SDS011;64924;42.140;24.762;2022-12-07T02:03:55;42.15;;;20.10;;
73869;SDS011;64924;42.140;24.762;2022-12-07T02:06:22;41.45;;;19.17;;
73869;SDS011;64924;42.140;24.762;2022-12-07T02:08:50;41.72;;;20.63;;
73869;SDS011;64924;42.140;24.762;2022-12-07T02:11:15;35.38;;;18.30;;
73869;SDS011;64924;42.140;24.762;2022-12-07T02:13:42;41.72;;;19.20;;
73869;SDS011;64924;42.140;24.762;2022-12-07T02:19:06;42.88;;;19.00;;
73869;SDS011;64924;42.140;24.762;2022-12-07T02:29:49;43.50;;;19.42;;
73869;SDS011;64924;42.140;24.762;2022-12-07T02:32:16;32.45;;;17.60;;
73869;SDS011;64924;42.140;24.762;2022-12-07T02:35:08;31.90;;;16.13;;
73869;SDS011;64924;42.140;24.762;2022-12-07T02:37:41;31.23;;;15.95;;
73869;SDS011;64924;42.140;24.762;2022-12-07T02:40:20;33.78;;;15.77;;
73869;SDS011;64924;42.140;24.762;2022-12-07T02:42:58;33.25;;;15.50;;
73869;SDS011;64924;42.140;24.762;2022-12-07T02:45:29;30.25;;;15.48;;
73869;SDS011;64924;42.140;24.762;2022-12-07T02:47:58;24.58;;;14.30;;
73869;SDS011;64924;42.140;24.762;2022-12-07T02:50:25;34.92;;;15.93;;
73869;SDS011;64924;42.140;24.762;2022-12-07T02:52:51;27.73;;;14.30;;
73869;SDS011;64924;42.140;24.762;2022-12-07T02:55:17;26.88;;;14.15;;
73869;SDS011;64924;42.140;24.762;2022-12-07T03:00:19;25.73;;;13.60;;
73869;SDS011;64924;42.140;24.762;2022-12-07T03:08:17;45.25;;;15.32;;
73869;SDS011;64924;42.140;24.762;2022-12-07T03:10:52;29.15;;;14.43;;
73869;SDS011;64924;42.140;24.762;2022-12-07T03:13:30;26.98;;;13.98;;
73869;SDS011;64924;42.140;24.762;2022-12-07T03:16:23;31.00;;;13.90;;
73869;SDS011;64924;42.140;24.762;2022-12-07T03:18:55;24.70;;;13.93;;
73869;SDS011;64924;42.140;24.762;2022-12-07T03:21:22;29.80;;;13.85;;
73869;SDS011;64924;42.140;24.762;2022-12-07T03:23:53;30.67;;;13.88;;
73869;SDS011;64924;42.140;24.762;2022-12-07T03:26:24;30.05;;;13.75;;
73869;SDS011;64924;42.140;24.762;2022-12-07T03:28:57;27.65;;;13.38;;
73869;SDS011;64924;42.140;24.762;2022-12-07T03:31:29;28.13;;;12.88;;
73869;SDS011;64924;42.140;24.762;2022-12-07T03:34:10;32.25;;;13.05;;
73869;SDS011;64924;42.140;24.762;2022-12-07T03:36:45;30.67;;;14.10;;
73869;SDS011;64924;42.140;24.762;2022-12-07T03:41:48;27.23;;;13.30;;
73869;SDS011;64924;42.140;24.762;2022-12-07T03:44:14;31.05;;;13.07;;
73869;SDS011;64924;42.140;24.762;2022-12-07T03:49:15;32.78;;;14.15;;
73869;SDS011;64924;42.140;24.762;2022-12-07T03:54:46;29.10;;;13.55;;
73869;SDS011;64924;42.140;24.762;2022-12-07T03:57:16;24.25;;;13.60;;
73869;SDS011;64924;42.140;24.762;2022-12-07T03:59:43;25.13;;;12.52;;
73869;SDS011;64924;42.140;24.762;2022-12-07T04:02:10;25.67;;;12.75;;
73869;SDS011;64924;42.140;24.762;2022-12-07T04:04:37;23.80;;;12.05;;
73869;SDS011;64924;42.140;24.762;2022-12-07T04:07:04;26.63;;;13.27;;
73869;SDS011;64924;42.140;24.762;2022-12-07T04:09:29;23.77;;;11.50;;
73869;SDS011;64924;42.140;24.762;2022-12-07T04:11:55;26.85;;;12.25;;
73869;SDS011;64924;42.140;24.762;2022-12-07T04:14:20;27.67;;;11.95;;
73869;SDS011;64924;42.140;24.762;2022-12-07T04:19:16;28.38;;;13.73;;
73869;SDS011;64924;42.140;24.762;2022-12-07T04:21:44;28.52;;;14.35;;
73869;SDS011;64924;42.140;24.762;2022-12-07T04:24:11;30.90;;;15.52;;
73869;SDS011;64924;42.140;24.762;2022-12-07T04:26:37;33.25;;;15.70;;
73869;SDS011;64924;42.140;24.762;2022-12-07T04:29:02;37.35;;;15.80;;
73869;SDS011;64924;42.140;24.762;2022-12-07T04:31:28;29.75;;;13.77;;
73869;SDS011;64924;42.140;24.762;2022-12-07T04:33:53;33.30;;;15.43;;
73869;SDS011;64924;42.140;24.762;2022-12-07T04:36:19;30.75;;;14.15;;
73869;SDS011;64924;42.140;24.762;2022-12-07T04:38:45;27.60;;;14.13;;
73869;SDS011;64924;42.140;24.762;2022-12-07T04:41:11;28.48;;;13.38;;
73869;SDS011;64924;42.140;24.762;2022-12-07T04:43:37;32.05;;;13.23;;
73869;SDS011;64924;42.140;24.762;2022-12-07T04:46:03;29.27;;;13.55;;
73869;SDS011;64924;42.140;24.762;2022-12-07T04:48:28;37.20;;;15.15;;
73869;SDS011;64924;42.140;24.762;2022-12-07T04:50:54;29.85;;;15.00;;
73869;SDS011;64924;42.140;24.762;2022-12-07T04:53:20;32.83;;;14.82;;
73869;SDS011;64924;42.140;24.762;2022-12-07T04:55:46;32.38;;;15.57;;
73869;SDS011;64924;42.140;24.762;2022-12-07T04:58:12;44.53;;;15.82;;
73869;SDS011;64924;42.140;24.762;2022-12-07T05:00:38;45.85;;;17.60;;
73869;SDS011;64924;42.140;24.762;2022-12-07T05:03:04;48.53;;;16.70;;
73869;SDS011;64924;42.140;24.762;2022-12-07T05:05:30;46.83;;;15.80;;
73869;SDS011;64924;42.140;24.762;2022-12-07T05:07:55;44.33;;;17.25;;
73869;SDS011;64924;42.140;24.762;2022-12-07T05:10:21;45.17;;;18.40;;
73869;SDS011;64924;42.140;24.762;2022-12-07T05:12:46;42.88;;;16.45;;
73869;SDS011;64924;42.140;24.762;2022-12-07T05:15:12;41.00;;;16.73;;
73869;SDS011;64924;42.140;24.762;2022-12-07T05:17:39;41.85;;;17.30;;
73869;SDS011;64924;42.140;24.762;2022-12-07T05:20:05;34.95;;;16.27;;
73869;SDS011;64924;42.140;24.762;2022-12-07T05:22:31;40.53;;;18.05;;
73869;SDS011;64924;42.140;24.762;2022-12-07T05:24:57;43.20;;;19.25;;
73869;SDS011;64924;42.140;24.762;2022-12-07T05:27:22;48.35;;;20.50;;
73869;SDS011;64924;42.140;24.762;2022-12-07T05:29:49;54.55;;;20.92;;
73869;SDS011;64924;42.140;24.762;2022-12-07T05:32:15;52.58;;;22.70;;
73869;SDS011;64924;42.140;24.762;2022-12-07T05:34:41;50.75;;;23.05;;
73869;SDS011;64924;42.140;24.762;2022-12-07T05:37:07;59.45;;;23.98;;
73869;SDS011;64924;42.140;24.762;2022-12-07T05:39:32;64.60;;;27.00;;
73869;SDS011;64924;42.140;24.762;2022-12-07T05:41:58;63.38;;;27.23;;
73869;SDS011;64924;42.140;24.762;2022-12-07T05:44:45;51.67;;;25.92;;
73869;SDS011;64924;42.140;24.762;2022-12-07T05:47:11;62.58;;;25.08;;
73869;SDS011;64924;42.140;24.762;2022-12-07T05:49:38;56.15;;;26.85;;
73869;SDS011;64924;42.140;24.762;2022-12-07T05:52:03;65.72;;;28.20;;
73869;SDS011;64924;42.140;24.762;2022-12-07T05:54:29;59.97;;;27.17;;
73869;SDS011;64924;42.140;24.762;2022-12-07T05:56:55;58.83;;;27.17;;
73869;SDS011;64924;42.140;24.762;2022-12-07T05:59:21;55.30;;;26.60;;
73869;SDS011;64924;42.140;24.762;2022-12-07T06:02:00;60.40;;;27.27;;
73869;SDS011;64924;42.140;24.762;2022-12-07T06:04:28;56.58;;;25.55;;
73869;SDS011;64924;42.140;24.762;2022-12-07T06:06:55;48.13;;;23.00;;
73869;SDS011;64924;42.140;24.762;2022-12-07T06:09:24;56.28;;;22.38;;
73869;SDS011;64924;42.140;24.762;2022-12-07T06:11:51;50.00;;;20.73;;
73869;SDS011;64924;42.140;24.762;2022-12-07T06:14:55;46.35;;;20.13;;
73869;SDS011;64924;42.140;24.762;2022-12-07T06:17:21;46.38;;;20.67;;
73869;SDS011;64924;42.140;24.762;2022-12-07T06:19:46;51.65;;;20.15;;
73869;SDS011;64924;42.140;24.762;2022-12-07T06:22:12;44.00;;;20.33;;
73869;SDS011;64924;42.140;24.762;2022-12-07T06:24:38;50.92;;;21.10;;
73869;SDS011;64924;42.140;24.762;2022-12-07T06:27:04;49.25;;;24.95;;
73869;SDS011;64924;42.140;24.762;2022-12-07T06:29:30;75.82;;;39.97;;
73869;SDS011;64924;42.140;24.762;2022-12-07T06:31:55;54.72;;;30.55;;
73869;SDS011;64924;42.140;24.762;2022-12-07T06:34:21;55.40;;;26.70;;
73869;SDS011;64924;42.140;24.762;2022-12-07T06:36:48;47.38;;;23.75;;
73869;SDS011;64924;42.140;24.762;2022-12-07T06:39:20;56.10;;;24.38;;
73869;SDS011;64924;42.140;24.762;2022-12-07T06:41:48;50.17;;;23.60;;
73869;SDS011;64924;42.140;24.762;2022-12-07T06:44:14;42.55;;;26.02;;
73869;SDS011;64924;42.140;24.762;2022-12-07T06:46:40;50.80;;;27.33;;
73869;SDS011;64924;42.140;24.762;2022-12-07T06:49:05;68.93;;;32.15;;
73869;SDS011;64924;42.140;24.762;2022-12-07T06:51:32;62.63;;;29.40;;
73869;SDS011;64924;42.140;24.762;2022-12-07T06:54:00;59.97;;;33.40;;
73869;SDS011;64924;42.140;24.762;2022-12-07T06:56:25;57.67;;;29.67;;
73869;SDS011;64924;42.140;24.762;2022-12-07T06:58:51;53.38;;;27.10;;
73869;SDS011;64924;42.140;24.762;2022-12-07T07:01:17;42.22;;;25.42;;
73869;SDS011;64924;42.140;24.762;2022-12-07T07:03:44;50.15;;;23.38;;
73869;SDS011;64924;42.140;24.762;2022-12-07T07:06:10;44.25;;;22.35;;
73869;SDS011;64924;42.140;24.762;2022-12-07T07:08:37;51.00;;;22.85;;
73869;SDS011;64924;42.140;24.762;2022-12-07T07:11:03;55.35;;;26.67;;
73869;SDS011;64924;42.140;24.762;2022-12-07T07:13:29;66.30;;;29.02;;
73869;SDS011;64924;42.140;24.762;2022-12-07T07:15:55;58.50;;;31.08;;
73869;SDS011;64924;42.140;24.762;2022-12-07T07:18:20;60.70;;;31.27;;
73869;SDS011;64924;42.140;24.762;2022-12-07T07:20:46;52.63;;;27.92;;
73869;SDS011;64924;42.140;24.762;2022-12-07T07:23:12;68.95;;;34.50;;
73869;SDS011;64924;42.140;24.762;2022-12-07T07:25:37;65.70;;;32.88;;
73869;SDS011;64924;42.140;24.762;2022-12-07T07:28:03;55.90;;;30.30;;
73869;SDS011;64924;42.140;24.762;2022-12-07T07:30:29;57.75;;;29.25;;
73869;SDS011;64924;42.140;24.762;2022-12-07T07:32:58;61.78;;;27.10;;
73869;SDS011;64924;42.140;24.762;2022-12-07T07:35:25;48.25;;;24.08;;
73869;SDS011;64924;42.140;24.762;2022-12-07T07:37:52;51.30;;;23.75;;
73869;SDS011;64924;42.140;24.762;2022-12-07T07:40:17;61.55;;;28.17;;
73869;SDS011;64924;42.140;24.762;2022-12-07T07:42:43;52.17;;;25.05;;
73869;SDS011;64924;42.140;24.762;2022-12-07T07:45:09;46.53;;;22.50;;
73869;SDS011;64924;42.140;24.762;2022-12-07T07:47:35;47.55;;;23.17;;
73869;SDS011;64924;42.140;24.762;2022-12-07T07:50:00;46.42;;;22.17;;
73869;SDS011;64924;42.140;24.762;2022-12-07T07:52:26;49.55;;;23.98;;
73869;SDS011;64924;42.140;24.762;2022-12-07T07:54:51;50.33;;;23.48;;
73869;SDS011;64924;42.140;24.762;2022-12-07T07:57:17;47.38;;;22.95;;
73869;SDS011;64924;42.140;24.762;2022-12-07T07:59:43;55.00;;;22.15;;
73869;SDS011;64924;42.140;24.762;2022-12-07T08:02:15;46.33;;;23.55;;
73869;SDS011;64924;42.140;24.762;2022-12-07T08:04:42;42.80;;;22.08;;
73869;SDS011;64924;42.140;24.762;2022-12-07T08:07:08;44.17;;;21.98;;
73869;SDS011;64924;42.140;24.762;2022-12-07T08:09:33;42.90;;;22.85;;
73869;SDS011;64924;42.140;24.762;2022-12-07T08:11:59;49.20;;;21.98;;
73869;SDS011;64924;42.140;24.762;2022-12-07T08:14:25;48.40;;;22.08;;
73869;SDS011;64924;42.140;24.762;2022-12-07T08:16:52;41.80;;;22.83;;
73869;SDS011;64924;42.140;24.762;2022-12-07T08:19:18;48.05;;;23.27;;
73869;SDS011;64924;42.140;24.762;2022-12-07T08:21:43;43.92;;;25.58;;
73869;SDS011;64924;42.140;24.762;2022-12-07T08:24:09;50.72;;;24.27;;
73869;SDS011;64924;42.140;24.762;2022-12-07T08:26:35;42.65;;;23.02;;
73869;SDS011;64924;42.140;24.762;2022-12-07T08:29:00;39.42;;;24.00;;
73869;SDS011;64924;42.140;24.762;2022-12-07T08:31:26;42.65;;;24.17;;
73869;SDS011;64924;42.140;24.762;2022-12-07T08:33:52;44.95;;;25.67;;
73869;SDS011;64924;42.140;24.762;2022-12-07T08:36:19;45.40;;;25.38;;
73869;SDS011;64924;42.140;24.762;2022-12-07T08:38:44;51.58;;;26.05;;
73869;SDS011;64924;42.140;24.762;2022-12-07T08:41:10;55.42;;;28.63;;
73869;SDS011;64924;42.140;24.762;2022-12-07T08:43:36;46.10;;;27.02;;
73869;SDS011;64924;42.140;24.762;2022-12-07T08:49:05;48.08;;;26.77;;
73869;SDS011;64924;42.140;24.762;2022-12-07T08:51:34;46.60;;;26.23;;
73869;SDS011;64924;42.140;24.762;2022-12-07T08:54:01;60.22;;;27.27;;
73869;SDS011;64924;42.140;24.762;2022-12-07T08:56:30;47.17;;;26.50;;
73869;SDS011;64924;42.140;24.762;2022-12-07T08:58:55;44.72;;;27.10;;
73869;SDS011;64924;42.140;24.762;2022-12-07T09:01:22;48.63;;;26.67;;
73869;SDS011;64924;42.140;24.762;2022-12-07T09:03:48;47.30;;;27.33;;
73869;SDS011;64924;42.140;24.762;2022-12-07T09:06:13;44.47;;;27.58;;
73869;SDS011;64924;42.140;24.762;2022-12-07T09:08:40;45.17;;;27.27;;
73869;SDS011;64924;42.140;24.762;2022-12-07T09:11:10;49.90;;;27.25;;
73869;SDS011;64924;42.140;24.762;2022-12-07T09:13:36;44.65;;;26.95;;
73869;SDS011;64924;42.140;24.762;2022-12-07T09:16:01;49.45;;;27.13;;
73869;SDS011;64924;42.140;24.762;2022-12-07T09:18:27;46.83;;;25.88;;
73869;SDS011;64924;42.140;24.762;2022-12-07T09:20:52;43.85;;;25.92;;
73869;SDS011;64924;42.140;24.762;2022-12-07T09:23:18;44.97;;;24.73;;
73869;SDS011;64924;42.140;24.762;2022-12-07T09:25:43;53.70;;;29.70;;
73869;SDS011;64924;42.140;24.762;2022-12-07T09:28:09;55.90;;;29.75;;
73869;SDS011;64924;42.140;24.762;2022-12-07T09:30:34;49.53;;;29.75;;
73869;SDS011;64924;42.140;24.762;2022-12-07T09:33:00;54.40;;;31.25;;
73869;SDS011;64924;42.140;24.762;2022-12-07T09:35:26;49.13;;;28.05;;
73869;SDS011;64924;42.140;24.762;2022-12-07T09:37:52;52.17;;;27.73;;
73869;SDS011;64924;42.140;24.762;2022-12-07T09:40:18;52.17;;;29.20;;
73869;SDS011;64924;42.140;24.762;2022-12-07T09:42:47;57.53;;;28.80;;
73869;SDS011;64924;42.140;24.762;2022-12-07T09:47:47;58.42;;;30.70;;
73869;SDS011;64924;42.140;24.762;2022-12-07T09:50:16;57.78;;;30.13;;
73869;SDS011;64924;42.140;24.762;2022-12-07T09:52:45;58.25;;;29.85;;
73869;SDS011;64924;42.140;24.762;2022-12-07T09:55:13;59.55;;;32.05;;
73869;SDS011;64924;42.140;24.762;2022-12-07T09:57:41;59.58;;;32.20;;
73869;SDS011;64924;42.140;24.762;2022-12-07T10:00:16;63.60;;;33.65;;
73869;SDS011;64924;42.140;24.762;2022-12-07T10:02:59;67.40;;;34.75;;
73869;SDS011;64924;42.140;24.762;2022-12-07T10:05:44;65.15;;;33.80;;
73869;SDS011;64924;42.140;24.762;2022-12-07T10:08:13;64.65;;;33.03;;
73869;SDS011;64924;42.140;24.762;2022-12-07T10:10:41;63.40;;;33.45;;
73869;SDS011;64924;42.140;24.762;2022-12-07T10:13:14;61.40;;;31.70;;
73869;SDS011;64924;42.140;24.762;2022-12-07T10:26:35;47.95;;;26.77;;
73869;SDS011;64924;42.140;24.762;2022-12-07T10:34:40;48.13;;;26.38;;
73869;SDS011;64924;42.140;24.762;2022-12-07T10:37:12;57.42;;;27.08;;
73869;SDS011;64924;42.140;24.762;2022-12-07T10:39:48;47.10;;;25.63;;
73869;SDS011;64924;42.140;24.762;2022-12-07T10:42:25;43.72;;;23.48;;
73869;SDS011;64924;42.140;24.762;2022-12-07T10:56:32;40.95;;;21.08;;
73869;SDS011;64924;42.140;24.762;2022-12-07T11:01:51;37.30;;;21.38;;
73869;SDS011;64924;42.140;24.762;2022-12-07T11:04:37;39.40;;;21.60;;
73869;SDS011;64924;42.140;24.762;2022-12-07T11:10:08;31.98;;;20.13;;
73869;SDS011;64924;42.140;24.762;2022-12-07T11:26:09;40.63;;;22.85;;
73869;SDS011;64924;42.140;24.762;2022-12-07T11:37:06;44.92;;;21.42;;
73869;SDS011;64924;42.140;24.762;2022-12-07T11:39:42;41.70;;;22.08;;
73869;SDS011;64924;42.140;24.762;2022-12-07T11:42:15;38.28;;;19.75;;
73869;SDS011;64924;42.140;24.762;2022-12-07T11:44:56;33.28;;;19.73;;
73869;SDS011;64924;42.140;24.762;2022-12-07T11:47:35;32.83;;;18.88;;
73869;SDS011;64924;42.140;24.762;2022-12-07T11:53:03;37.55;;;19.27;;
73869;SDS011;64924;42.140;24.762;2022-12-07T12:06:43;33.90;;;18.50;;
73869;SDS011;64924;42.140;24.762;2022-12-07T12:28:58;41.33;;;20.20;;
73869;SDS011;64924;42.140;24.762;2022-12-07T12:33:34;35.03;;;18.52;;
73869;SDS011;64924;42.140;24.762;2022-12-07T12:38:51;32.30;;;19.75;;
73869;SDS011;64924;42.140;24.762;2022-12-07T12:46:49;42.65;;;18.95;;
73869;SDS011;64924;42.140;24.762;2022-12-07T12:54:30;34.25;;;18.58;;
73869;SDS011;64924;42.140;24.762;2022-12-07T12:59:41;38.20;;;19.05;;
73869;SDS011;64924;42.140;24.762;2022-12-07T13:02:39;33.53;;;17.83;;
73869;SDS011;64924;42.140;24.762;2022-12-07T13:05:21;32.97;;;18.10;;
73869;SDS011;64924;42.140;24.762;2022-12-07T13:18:37;29.67;;;18.90;;
73869;SDS011;64924;42.140;24.762;2022-12-07T13:29:18;29.80;;;17.75;;
73869;SDS011;64924;42.140;24.762;2022-12-07T13:31:54;31.88;;;18.15;;
73869;SDS011;64924;42.140;24.762;2022-12-07T13:34:35;34.78;;;19.75;;
73869;SDS011;64924;42.140;24.762;2022-12-07T13:39:54;37.78;;;18.63;;
73869;SDS011;64924;42.140;24.762;2022-12-07T13:42:35;38.22;;;18.25;;
73869;SDS011;64924;42.140;24.762;2022-12-07T13:45:13;38.50;;;18.42;;
73869;SDS011;64924;42.140;24.762;2022-12-07T13:47:53;37.58;;;19.75;;
73869;SDS011;64924;42.140;24.762;2022-12-07T13:52:55;32.63;;;18.13;;
73869;SDS011;64924;42.140;24.762;2022-12-07T13:55:22;30.13;;;16.95;;
73869;SDS011;64924;42.140;24.762;2022-12-07T13:57:49;33.08;;;17.58;;
73869;SDS011;64924;42.140;24.762;2022-12-07T14:00:18;37.30;;;18.48;;
73869;SDS011;64924;42.140;24.762;2022-12-07T14:06:02;38.60;;;18.50;;
73869;SDS011;64924;42.140;24.762;2022-12-07T14:08:50;43.05;;;19.52;;
73869;SDS011;64924;42.140;24.762;2022-12-07T14:11:30;44.08;;;20.63;;
73869;SDS011;64924;42.140;24.762;2022-12-07T14:13:57;37.00;;;20.33;;
73869;SDS011;64924;42.140;24.762;2022-12-07T14:18:54;40.35;;;21.88;;
73869;SDS011;64924;42.140;24.762;2022-12-07T14:21:22;39.88;;;20.20;;
73869;SDS011;64924;42.140;24.762;2022-12-07T14:24:36;38.45;;;20.33;;
73869;SDS011;64924;42.140;24.762;2022-12-07T14:26:47;45.58;;;21.08;;
73869;SDS011;64924;42.140;24.762;2022-12-07T14:29:32;42.30;;;19.40;;
73869;SDS011;64924;42.140;24.762;2022-12-07T14:32:10;34.15;;;19.42;;
73869;SDS011;64924;42.140;24.762;2022-12-07T14:37:41;47.58;;;21.35;;
73869;SDS011;64924;42.140;24.762;2022-12-07T14:40:12;40.85;;;21.73;;
73869;SDS011;64924;42.140;24.762;2022-12-07T14:42:43;40.58;;;20.85;;
73869;SDS011;64924;42.140;24.762;2022-12-07T14:45:13;49.63;;;21.55;;
73869;SDS011;64924;42.140;24.762;2022-12-07T14:47:40;33.95;;;19.55;;
73869;SDS011;64924;42.140;24.762;2022-12-07T14:50:06;34.15;;;19.75;;
73869;SDS011;64924;42.140;24.762;2022-12-07T14:52:32;41.83;;;22.15;;
73869;SDS011;64924;42.140;24.762;2022-12-07T14:54:58;48.65;;;25.58;;
73869;SDS011;64924;42.140;24.762;2022-12-07T14:57:23;54.67;;;26.58;;
73869;SDS011;64924;42.140;24.762;2022-12-07T14:59:49;47.97;;;23.65;;
73869;SDS011;64924;42.140;24.762;2022-12-07T15:02:15;51.63;;;24.48;;
73869;SDS011;64924;42.140;24.762;2022-12-07T15:04:40;52.38;;;26.67;;
73869;SDS011;64924;42.140;24.762;2022-12-07T15:07:09;52.35;;;24.85;;
73869;SDS011;64924;42.140;24.762;2022-12-07T15:09:39;43.95;;;22.73;;
73869;SDS011;64924;42.140;24.762;2022-12-07T15:12:05;49.17;;;24.85;;
73869;SDS011;64924;42.140;24.762;2022-12-07T15:14:30;56.42;;;24.05;;
73869;SDS011;64924;42.140;24.762;2022-12-07T15:16:56;52.13;;;25.80;;
73869;SDS011;64924;42.140;24.762;2022-12-07T15:19:22;52.38;;;24.35;;
73869;SDS011;64924;42.140;24.762;2022-12-07T15:21:50;47.30;;;24.27;;
73869;SDS011;64924;42.140;24.762;2022-12-07T15:24:16;59.15;;;26.13;;
73869;SDS011;64924;42.140;24.762;2022-12-07T15:26:42;50.10;;;24.50;;
73869;SDS011;64924;42.140;24.762;2022-12-07T15:29:08;51.33;;;25.23;;
73869;SDS011;64924;42.140;24.762;2022-12-07T15:31:34;64.93;;;27.80;;
73869;SDS011;64924;42.140;24.762;2022-12-07T15:34:00;59.53;;;27.35;;
73869;SDS011;64924;42.140;24.762;2022-12-07T15:36:27;55.15;;;28.35;;
73869;SDS011;64924;42.140;24.762;2022-12-07T15:38:54;49.60;;;28.00;;
73869;SDS011;64924;42.140;24.762;2022-12-07T15:41:19;65.10;;;29.40;;
73869;SDS011;64924;42.140;24.762;2022-12-07T15:43:46;65.57;;;31.10;;
73869;SDS011;64924;42.140;24.762;2022-12-07T15:46:30;80.75;;;34.65;;
73869;SDS011;64924;42.140;24.762;2022-12-07T15:49:01;68.72;;;34.08;;
73869;SDS011;64924;42.140;24.762;2022-12-07T15:51:27;68.85;;;35.38;;
73869;SDS011;64924;42.140;24.762;2022-12-07T15:53:53;72.90;;;38.72;;
73869;SDS011;64924;42.140;24.762;2022-12-07T15:56:19;55.20;;;31.98;;
73869;SDS011;64924;42.140;24.762;2022-12-07T15:58:45;53.35;;;32.05;;
73869;SDS011;64924;42.140;24.762;2022-12-07T16:01:14;65.85;;;36.80;;
73869;SDS011;64924;42.140;24.762;2022-12-07T16:03:42;60.63;;;35.15;;
73869;SDS011;64924;42.140;24.762;2022-12-07T16:06:08;64.93;;;36.50;;
73869;SDS011;64924;42.140;24.762;2022-12-07T16:08:33;59.42;;;36.22;;
73869;SDS011;64924;42.140;24.762;2022-12-07T16:10:59;65.38;;;37.03;;
73869;SDS011;64924;42.140;24.762;2022-12-07T16:13:24;62.40;;;35.50;;
73869;SDS011;64924;42.140;24.762;2022-12-07T16:15:50;63.53;;;36.67;;
73869;SDS011;64924;42.140;24.762;2022-12-07T16:18:15;140.50;;;69.30;;
73869;SDS011;64924;42.140;24.762;2022-12-07T16:20:41;132.85;;;66.68;;
73869;SDS011;64924;42.140;24.762;2022-12-07T16:23:07;127.50;;;60.65;;
73869;SDS011;64924;42.140;24.762;2022-12-07T16:25:32;130.27;;;62.92;;
73869;SDS011;64924;42.140;24.762;2022-12-07T16:27:58;155.18;;;67.47;;
73869;SDS011;64924;42.140;24.762;2022-12-07T16:30:24;145.45;;;61.90;;
73869;SDS011;64924;42.140;24.762;2022-12-07T16:32:50;139.30;;;60.85;;
73869;SDS011;64924;42.140;24.762;2022-12-07T16:35:16;156.77;;;62.65;;
73869;SDS011;64924;42.140;24.762;2022-12-07T16:37:42;131.05;;;58.97;;
73869;SDS011;64924;42.140;24.762;2022-12-07T16:40:07;159.02;;;68.38;;
73869;SDS011;64924;42.140;24.762;2022-12-07T16:42:34;156.25;;;65.63;;
73869;SDS011;64924;42.140;24.762;2022-12-07T16:45:00;178.23;;;69.60;;
73869;SDS011;64924;42.140;24.762;2022-12-07T16:47:26;173.05;;;76.50;;
73869;SDS011;64924;42.140;24.762;2022-12-07T16:49:51;195.00;;;75.75;;
73869;SDS011;64924;42.140;24.762;2022-12-07T16:52:17;169.60;;;74.50;;
73869;SDS011;64924;42.140;24.762;2022-12-07T16:54:44;154.60;;;69.05;;
73869;SDS011;64924;42.140;24.762;2022-12-07T16:57:10;167.88;;;70.82;;
73869;SDS011;64924;42.140;24.762;2022-12-07T16:59:35;146.13;;;65.03;;
73869;SDS011;64924;42.140;24.762;2022-12-07T17:02:01;120.90;;;60.90;;
73869;SDS011;64924;42.140;24.762;2022-12-07T17:04:27;137.55;;;60.70;;
73869;SDS011;64924;42.140;24.762;2022-12-07T17:06:53;130.45;;;58.85;;
73869;SDS011;64924;42.140;24.762;2022-12-07T17:09:18;125.53;;;56.60;;
73869;SDS011;64924;42.140;24.762;2022-12-07T17:11:44;119.07;;;56.50;;
73869;SDS011;64924;42.140;24.762;2022-12-07T17:14:10;104.80;;;53.30;;
73869;SDS011;64924;42.140;24.762;2022-12-07T17:16:54;111.53;;;50.53;;